Terminal Aerodrome Forecast
Issued by NWS

Current Version | Previous Version | Text Only | Print | Product List | Glossary On
Versions: 1 2 3 4 5 6 7 8 9 10 11 12 13 14 15 16
777
FTUS45 KRIW 221700
TAFPNA
TAF
KPNA 221720Z 2218/2318 VRB04KT P6SM SCT022 SCT030 BKN080
      TEMPO 2218/2219 SCT022 OVC030
     FM222100 11007KT P6SM VCTS SCT030 BKN050CB
     FM230200 16007KT 6SM -SHRA SCT020 BKN035
     FM231600 15005KT P6SM VCSH SCT030 BKN060
      AMD LTD TO CLD VIS AND WIND=

USA.gov is the U.S. government's official web portal to all federal, state and local government web resources and services.